sensor_id;sensor_type;location;lat;lon;timestamp;temperature;humidity
21666;DHT22;10994;45.486;9.190;2023-02-28T13:17:39;11.40;99.90
21666;DHT22;10994;45.486;9.190;2023-02-28T13:20:17;11.60;99.90
21666;DHT22;10994;45.486;9.190;2023-02-28T13:22:49;11.70;99.90
21666;DHT22;10994;45.486;9.190;2023-02-28T13:27:51;11.20;99.90
21666;DHT22;10994;45.486;9.190;2023-02-28T13:33:36;11.00;99.90
21666;DHT22;10994;45.486;9.190;2023-02-28T13:38:51;11.30;99.90
21666;DHT22;10994;45.486;9.190;2023-02-28T13:46:28;11.30;99.90
21666;DHT22;10994;45.486;9.190;2023-02-28T13:48:53;11.40;99.90
21666;DHT22;10994;45.486;9.190;2023-02-28T13:51:40;11.00;99.90
21666;DHT22;10994;45.486;9.190;2023-02-28T14:02:59;10.50;99.90
21666;DHT22;10994;45.486;9.190;2023-02-28T14:05:30;10.70;99.90
21666;DHT22;10994;45.486;9.190;2023-02-28T14:08:02;10.80;99.90
21666;DHT22;10994;45.486;9.190;2023-02-28T14:10:32;10.80;99.90
21666;DHT22;10994;45.486;9.190;2023-02-28T14:16:00;11.10;99.90
21666;DHT22;10994;45.486;9.190;2023-02-28T14:18:34;11.10;99.90
21666;DHT22;10994;45.486;9.190;2023-02-28T14:21:26;10.90;99.90
21666;DHT22;10994;45.486;9.190;2023-02-28T14:24:21;10.90;99.90
21666;DHT22;10994;45.486;9.190;2023-02-28T14:27:05;10.80;99.90
21666;DHT22;10994;45.486;9.190;2023-02-28T14:32:41;10.70;99.90
21666;DHT22;10994;45.486;9.190;2023-02-28T14:35:20;10.70;99.90
21666;DHT22;10994;45.486;9.190;2023-02-28T14:37:48;10.60;99.90
21666;DHT22;10994;45.486;9.190;2023-02-28T14:40:32;10.50;99.90
21666;DHT22;10994;45.486;9.190;2023-02-28T14:43:04;10.60;99.90
21666;DHT22;10994;45.486;9.190;2023-02-28T14:45:32;10.50;99.90
21666;DHT22;10994;45.486;9.190;2023-02-28T14:47:59;10.40;99.90
21666;DHT22;10994;45.486;9.190;2023-02-28T14:50:34;10.30;99.90
21666;DHT22;10994;45.486;9.190;2023-02-28T14:53:01;10.50;99.90
21666;DHT22;10994;45.486;9.190;2023-02-28T14:55:46;10.60;99.90
21666;DHT22;10994;45.486;9.190;2023-02-28T14:58:33;10.80;99.90
21666;DHT22;10994;45.486;9.190;2023-02-28T15:01:01;10.90;99.90
21666;DHT22;10994;45.486;9.190;2023-02-28T15:03:34;11.00;99.90
21666;DHT22;10994;45.486;9.190;2023-02-28T15:06:20;11.00;99.90
21666;DHT22;10994;45.486;9.190;2023-02-28T15:08:48;10.90;99.90
21666;DHT22;10994;45.486;9.190;2023-02-28T15:11:32;10.80;99.90
21666;DHT22;10994;45.486;9.190;2023-02-28T15:13:57;10.70;99.90
21666;DHT22;10994;45.486;9.190;2023-02-28T15:16:36;10.70;99.90
21666;DHT22;10994;45.486;9.190;2023-02-28T15:21:48;10.80;99.90
21666;DHT22;10994;45.486;9.190;2023-02-28T15:24:50;10.80;99.90
21666;DHT22;10994;45.486;9.190;2023-02-28T15:27:24;11.00;99.90
21666;DHT22;10994;45.486;9.190;2023-02-28T15:29:54;11.10;99.90
21666;DHT22;10994;45.486;9.190;2023-02-28T15:32:26;11.00;99.90
21666;DHT22;10994;45.486;9.190;2023-02-28T15:34:52;10.90;99.90
21666;DHT22;10994;45.486;9.190;2023-02-28T15:42:30;11.00;99.90
21666;DHT22;10994;45.486;9.190;2023-02-28T15:44:57;11.00;99.90
21666;DHT22;10994;45.486;9.190;2023-02-28T15:47:25;11.00;99.90
21666;DHT22;10994;45.486;9.190;2023-02-28T15:50:08;10.80;99.90
21666;DHT22;10994;45.486;9.190;2023-02-28T15:52:43;10.80;99.90
21666;DHT22;10994;45.486;9.190;2023-02-28T15:55:26;11.00;99.90
21666;DHT22;10994;45.486;9.190;2023-02-28T15:57:55;11.10;99.90
21666;DHT22;10994;45.486;9.190;2023-02-28T16:00:24;11.10;99.90
21666;DHT22;10994;45.486;9.190;2023-02-28T16:02:50;11.00;99.90
21666;DHT22;10994;45.486;9.190;2023-02-28T16:05:21;11.10;99.90
21666;DHT22;10994;45.486;9.190;2023-02-28T16:07:54;11.20;99.90
21666;DHT22;10994;45.486;9.190;2023-02-28T16:10:22;11.20;99.90
21666;DHT22;10994;45.486;9.190;2023-02-28T16:12:55;11.20;99.90
21666;DHT22;10994;45.486;9.190;2023-02-28T16:15:27;11.30;99.90
21666;DHT22;10994;45.486;9.190;2023-02-28T16:17:54;11.20;99.90
21666;DHT22;10994;45.486;9.190;2023-02-28T16:20:23;11.20;99.90
21666;DHT22;10994;45.486;9.190;2023-02-28T16:22:49;11.20;99.90
21666;DHT22;10994;45.486;9.190;2023-02-28T16:25:18;11.00;99.90
21666;DHT22;10994;45.486;9.190;2023-02-28T16:27:47;11.10;99.90
21666;DHT22;10994;45.486;9.190;2023-02-28T16:30:21;11.00;99.90
21666;DHT22;10994;45.486;9.190;2023-02-28T16:32:48;10.90;99.90
21666;DHT22;10994;45.486;9.190;2023-02-28T16:35:15;11.00;99.90
21666;DHT22;10994;45.486;9.190;2023-02-28T16:37:40;11.00;99.90
21666;DHT22;10994;45.486;9.190;2023-02-28T16:40:18;11.00;99.90
21666;DHT22;10994;45.486;9.190;2023-02-28T16:42:46;10.90;99.90
21666;DHT22;10994;45.486;9.190;2023-02-28T16:45:24;10.90;99.90
21666;DHT22;10994;45.486;9.190;2023-02-28T16:47:50;11.00;99.90
21666;DHT22;10994;45.486;9.190;2023-02-28T16:50:23;11.00;99.90
21666;DHT22;10994;45.486;9.190;2023-02-28T16:52:53;10.80;99.90
21666;DHT22;10994;45.486;9.190;2023-02-28T16:55:20;10.80;99.90
21666;DHT22;10994;45.486;9.190;2023-02-28T16:57:51;10.90;99.90
21666;DHT22;10994;45.486;9.190;2023-02-28T17:00:17;10.90;99.90
21666;DHT22;10994;45.486;9.190;2023-02-28T17:02:46;10.80;99.90
21666;DHT22;10994;45.486;9.190;2023-02-28T17:05:12;10.80;99.90
21666;DHT22;10994;45.486;9.190;2023-02-28T17:07:39;10.80;99.90
21666;DHT22;10994;45.486;9.190;2023-02-28T17:10:22;10.70;99.90
21666;DHT22;10994;45.486;9.190;2023-02-28T17:12:48;10.70;99.90
21666;DHT22;10994;45.486;9.190;2023-02-28T17:15:16;10.60;99.90
21666;DHT22;10994;45.486;9.190;2023-02-28T17:17:42;10.50;99.90
21666;DHT22;10994;45.486;9.190;2023-02-28T17:20:26;10.50;99.90
21666;DHT22;10994;45.486;9.190;2023-02-28T17:22:53;10.60;99.90
21666;DHT22;10994;45.486;9.190;2023-02-28T17:25:19;10.60;99.90
21666;DHT22;10994;45.486;9.190;2023-02-28T17:27:45;10.60;99.90
21666;DHT22;10994;45.486;9.190;2023-02-28T17:30:23;10.60;99.90
21666;DHT22;10994;45.486;9.190;2023-02-28T17:32:49;10.60;99.90
21666;DHT22;10994;45.486;9.190;2023-02-28T17:35:15;10.70;99.90
21666;DHT22;10994;45.486;9.190;2023-02-28T17:37:41;10.50;99.90
21666;DHT22;10994;45.486;9.190;2023-02-28T17:40:14;10.50;99.90
21666;DHT22;10994;45.486;9.190;2023-02-28T17:42:40;10.50;99.90
21666;DHT22;10994;45.486;9.190;2023-02-28T17:45:13;10.40;99.90
21666;DHT22;10994;45.486;9.190;2023-02-28T17:47:43;10.40;99.90
21666;DHT22;10994;45.486;9.190;2023-02-28T17:50:20;10.30;99.90
21666;DHT22;10994;45.486;9.190;2023-02-28T17:52:46;10.30;99.90
21666;DHT22;10994;45.486;9.190;2023-02-28T17:55:14;10.40;99.90
21666;DHT22;10994;45.486;9.190;2023-02-28T17:57:40;10.50;99.90
21666;DHT22;10994;45.486;9.190;2023-02-28T18:00:08;10.50;99.90
21666;DHT22;10994;45.486;9.190;2023-02-28T18:02:37;10.50;99.90
21666;DHT22;10994;45.486;9.190;2023-02-28T18:05:03;10.30;99.90
21666;DHT22;10994;45.486;9.190;2023-02-28T18:07:29;10.20;99.90
21666;DHT22;10994;45.486;9.190;2023-02-28T18:09:56;10.10;99.90
21666;DHT22;10994;45.486;9.190;2023-02-28T18:12:23;10.00;99.90
21666;DHT22;10994;45.486;9.190;2023-02-28T18:14:49;10.00;99.90
21666;DHT22;10994;45.486;9.190;2023-02-28T18:17:15;9.90;99.90
21666;DHT22;10994;45.486;9.190;2023-02-28T18:19:41;10.00;99.90
21666;DHT22;10994;45.486;9.190;2023-02-28T18:22:07;10.00;99.90
21666;DHT22;10994;45.486;9.190;2023-02-28T18:24:34;10.00;99.90
21666;DHT22;10994;45.486;9.190;2023-02-28T18:27:03;10.00;99.90
21666;DHT22;10994;45.486;9.190;2023-02-28T18:29:32;10.10;99.90
21666;DHT22;10994;45.486;9.190;2023-02-28T18:31:58;10.10;99.90
21666;DHT22;10994;45.486;9.190;2023-02-28T18:34:24;10.00;99.90
21666;DHT22;10994;45.486;9.190;2023-02-28T18:36:51;10.10;99.90
21666;DHT22;10994;45.486;9.190;2023-02-28T18:39:18;9.90;99.90
21666;DHT22;10994;45.486;9.190;2023-02-28T18:41:44;9.90;99.90
21666;DHT22;10994;45.486;9.190;2023-02-28T18:44:10;9.80;99.90
21666;DHT22;10994;45.486;9.190;2023-02-28T18:46:36;9.90;99.90
21666;DHT22;10994;45.486;9.190;2023-02-28T18:49:02;9.90;99.90
21666;DHT22;10994;45.486;9.190;2023-02-28T18:51:28;9.80;99.90
21666;DHT22;10994;45.486;9.190;2023-02-28T18:53:55;9.60;99.90
21666;DHT22;10994;45.486;9.190;2023-02-28T18:56:22;9.60;99.90
21666;DHT22;10994;45.486;9.190;2023-02-28T18:58:51;9.50;99.90
21666;DHT22;10994;45.486;9.190;2023-02-28T19:01:22;9.40;99.90
21666;DHT22;10994;45.486;9.190;2023-02-28T19:03:50;9.50;99.90
21666;DHT22;10994;45.486;9.190;2023-02-28T19:06:17;9.50;99.90
21666;DHT22;10994;45.486;9.190;2023-02-28T19:08:43;9.50;99.90
21666;DHT22;10994;45.486;9.190;2023-02-28T19:11:14;9.30;99.90
21666;DHT22;10994;45.486;9.190;2023-02-28T19:13:41;9.20;99.90
21666;DHT22;10994;45.486;9.190;2023-02-28T19:16:08;9.10;99.90
21666;DHT22;10994;45.486;9.190;2023-02-28T19:18:35;8.90;99.90
21666;DHT22;10994;45.486;9.190;2023-02-28T19:21:01;8.90;99.90
21666;DHT22;10994;45.486;9.190;2023-02-28T19:23:27;8.70;99.90
21666;DHT22;10994;45.486;9.190;2023-02-28T19:25:53;8.60;99.90
21666;DHT22;10994;45.486;9.190;2023-02-28T19:28:20;8.60;99.90
21666;DHT22;10994;45.486;9.190;2023-02-28T19:30:50;8.70;99.90
21666;DHT22;10994;45.486;9.190;2023-02-28T19:33:19;8.90;99.90
21666;DHT22;10994;45.486;9.190;2023-02-28T19:35:48;8.90;99.90
21666;DHT22;10994;45.486;9.190;2023-02-28T19:38:16;9.00;99.90
21666;DHT22;10994;45.486;9.190;2023-02-28T19:40:42;9.00;99.90
21666;DHT22;10994;45.486;9.190;2023-02-28T19:43:10;9.10;99.90
21666;DHT22;10994;45.486;9.190;2023-02-28T19:45:37;9.10;99.90
21666;DHT22;10994;45.486;9.190;2023-02-28T19:48:03;9.00;99.90
21666;DHT22;10994;45.486;9.190;2023-02-28T19:50:29;9.00;99.90
21666;DHT22;10994;45.486;9.190;2023-02-28T19:52:56;9.20;99.90
21666;DHT22;10994;45.486;9.190;2023-02-28T19:55:26;9.20;99.90
21666;DHT22;10994;45.486;9.190;2023-02-28T19:57:51;9.10;99.90
21666;DHT22;10994;45.486;9.190;2023-02-28T20:00:17;8.90;99.90
21666;DHT22;10994;45.486;9.190;2023-02-28T20:02:43;8.90;99.90
21666;DHT22;10994;45.486;9.190;2023-02-28T20:05:10;8.80;99.90
21666;DHT22;10994;45.486;9.190;2023-02-28T20:07:42;8.80;99.90
21666;DHT22;10994;45.486;9.190;2023-02-28T20:10:08;8.90;99.90
21666;DHT22;10994;45.486;9.190;2023-02-28T20:12:34;9.00;99.90
21666;DHT22;10994;45.486;9.190;2023-02-28T20:15:03;9.00;99.90
21666;DHT22;10994;45.486;9.190;2023-02-28T20:17:31;9.00;99.90
21666;DHT22;10994;45.486;9.190;2023-02-28T20:19:56;8.90;99.90
21666;DHT22;10994;45.486;9.190;2023-02-28T20:22:22;9.00;99.90
21666;DHT22;10994;45.486;9.190;2023-02-28T20:24:48;9.10;99.90
21666;DHT22;10994;45.486;9.190;2023-02-28T20:27:14;9.20;99.90
21666;DHT22;10994;45.486;9.190;2023-02-28T20:29:40;9.20;99.90
21666;DHT22;10994;45.486;9.190;2023-02-28T20:32:08;9.20;99.90
21666;DHT22;10994;45.486;9.190;2023-02-28T20:34:34;9.30;99.90
21666;DHT22;10994;45.486;9.190;2023-02-28T20:36:59;9.20;99.90
21666;DHT22;10994;45.486;9.190;2023-02-28T20:39:25;9.10;99.90
21666;DHT22;10994;45.486;9.190;2023-02-28T20:41:51;8.80;99.90
21666;DHT22;10994;45.486;9.190;2023-02-28T20:44:16;8.80;99.90
21666;DHT22;10994;45.486;9.190;2023-02-28T20:46:42;8.90;99.90
21666;DHT22;10994;45.486;9.190;2023-02-28T20:49:12;9.00;99.90
21666;DHT22;10994;45.486;9.190;2023-02-28T20:51:39;9.00;99.90
21666;DHT22;10994;45.486;9.190;2023-02-28T20:54:07;9.00;99.90
21666;DHT22;10994;45.486;9.190;2023-02-28T20:56:33;9.00;99.90
21666;DHT22;10994;45.486;9.190;2023-02-28T20:58:59;9.10;99.90
21666;DHT22;10994;45.486;9.190;2023-02-28T21:01:28;9.20;99.90
21666;DHT22;10994;45.486;9.190;2023-02-28T21:04:04;9.20;99.90
21666;DHT22;10994;45.486;9.190;2023-02-28T21:06:37;9.30;99.90
21666;DHT22;10994;45.486;9.190;2023-02-28T21:09:05;9.40;99.90
21666;DHT22;10994;45.486;9.190;2023-02-28T21:11:33;9.60;99.90
21666;DHT22;10994;45.486;9.190;2023-02-28T21:14:04;9.60;99.90
21666;DHT22;10994;45.486;9.190;2023-02-28T21:16:31;9.60;99.90
21666;DHT22;10994;45.486;9.190;2023-02-28T21:18:57;9.60;99.90
21666;DHT22;10994;45.486;9.190;2023-02-28T21:21:33;9.70;99.90
21666;DHT22;10994;45.486;9.190;2023-02-28T21:23:59;9.70;99.90
21666;DHT22;10994;45.486;9.190;2023-02-28T21:26:25;9.80;99.90
21666;DHT22;10994;45.486;9.190;2023-02-28T21:28:54;9.80;99.90
21666;DHT22;10994;45.486;9.190;2023-02-28T21:31:21;9.80;99.90
21666;DHT22;10994;45.486;9.190;2023-02-28T21:33:47;9.80;99.90
21666;DHT22;10994;45.486;9.190;2023-02-28T21:36:15;9.70;99.90
21666;DHT22;10994;45.486;9.190;2023-02-28T21:38:42;9.70;99.90
21666;DHT22;10994;45.486;9.190;2023-02-28T21:41:10;9.50;99.90
21666;DHT22;10994;45.486;9.190;2023-02-28T21:43:40;9.30;99.90
21666;DHT22;10994;45.486;9.190;2023-02-28T21:46:08;9.20;99.90
21666;DHT22;10994;45.486;9.190;2023-02-28T21:48:35;9.10;99.90
21666;DHT22;10994;45.486;9.190;2023-02-28T21:51:05;9.10;99.90
21666;DHT22;10994;45.486;9.190;2023-02-28T21:53:32;9.20;99.90
21666;DHT22;10994;45.486;9.190;2023-02-28T21:56:03;9.20;99.90
21666;DHT22;10994;45.486;9.190;2023-02-28T21:58:29;9.10;99.90
21666;DHT22;10994;45.486;9.190;2023-02-28T22:01:03;9.20;99.90
21666;DHT22;10994;45.486;9.190;2023-02-28T22:03:29;9.30;99.90
21666;DHT22;10994;45.486;9.190;2023-02-28T22:05:54;9.40;99.90
21666;DHT22;10994;45.486;9.190;2023-02-28T22:08:20;9.40;99.90
21666;DHT22;10994;45.486;9.190;2023-02-28T22:10:46;9.30;99.90
21666;DHT22;10994;45.486;9.190;2023-02-28T22:13:12;9.20;99.90
21666;DHT22;10994;45.486;9.190;2023-02-28T22:15:38;9.20;99.90
21666;DHT22;10994;45.486;9.190;2023-02-28T22:18:04;9.20;99.90
21666;DHT22;10994;45.486;9.190;2023-02-28T22:20:31;9.20;99.90
21666;DHT22;10994;45.486;9.190;2023-02-28T22:22:57;9.30;99.90
21666;DHT22;10994;45.486;9.190;2023-02-28T22:25:25;9.30;99.90
21666;DHT22;10994;45.486;9.190;2023-02-28T22:27:51;9.50;99.90
21666;DHT22;10994;45.486;9.190;2023-02-28T22:30:17;9.60;99.90
21666;DHT22;10994;45.486;9.190;2023-02-28T22:32:42;9.70;99.90
21666;DHT22;10994;45.486;9.190;2023-02-28T22:35:08;9.70;99.90
21666;DHT22;10994;45.486;9.190;2023-02-28T22:37:34;9.70;99.90
21666;DHT22;10994;45.486;9.190;2023-02-28T22:40:00;9.60;99.90
21666;DHT22;10994;45.486;9.190;2023-02-28T22:42:25;9.60;99.90
21666;DHT22;10994;45.486;9.190;2023-02-28T22:44:51;9.50;99.90
21666;DHT22;10994;45.486;9.190;2023-02-28T22:47:17;9.40;99.90
21666;DHT22;10994;45.486;9.190;2023-02-28T22:49:43;9.40;99.90
21666;DHT22;10994;45.486;9.190;2023-02-28T22:52:08;9.40;99.90
21666;DHT22;10994;45.486;9.190;2023-02-28T22:54:34;9.50;99.90
21666;DHT22;10994;45.486;9.190;2023-02-28T22:57:00;9.50;99.90
21666;DHT22;10994;45.486;9.190;2023-02-28T22:59:26;9.60;99.90
21666;DHT22;10994;45.486;9.190;2023-02-28T23:01:51;9.60;99.90
21666;DHT22;10994;45.486;9.190;2023-02-28T23:04:17;9.60;99.90
21666;DHT22;10994;45.486;9.190;2023-02-28T23:06:44;9.70;99.90
21666;DHT22;10994;45.486;9.190;2023-02-28T23:09:15;9.70;99.90
21666;DHT22;10994;45.486;9.190;2023-02-28T23:11:49;9.70;99.90
21666;DHT22;10994;45.486;9.190;2023-02-28T23:14:16;9.60;99.90
21666;DHT22;10994;45.486;9.190;2023-02-28T23:16:48;9.60;99.90
21666;DHT22;10994;45.486;9.190;2023-02-28T23:19:21;9.70;99.90
21666;DHT22;10994;45.486;9.190;2023-02-28T23:21:48;9.60;99.90
21666;DHT22;10994;45.486;9.190;2023-02-28T23:24:15;9.70;99.90
21666;DHT22;10994;45.486;9.190;2023-02-28T23:26:44;9.60;99.90
21666;DHT22;10994;45.486;9.190;2023-02-28T23:29:15;9.60;99.90
21666;DHT22;10994;45.486;9.190;2023-02-28T23:31:41;9.30;99.90
21666;DHT22;10994;45.486;9.190;2023-02-28T23:34:07;9.00;99.90
21666;DHT22;10994;45.486;9.190;2023-02-28T23:36:32;9.00;99.90
21666;DHT22;10994;45.486;9.190;2023-02-28T23:38:58;9.20;99.90
21666;DHT22;10994;45.486;9.190;2023-02-28T23:41:24;9.20;99.90
21666;DHT22;10994;45.486;9.190;2023-02-28T23:43:51;9.30;99.90
21666;DHT22;10994;45.486;9.190;2023-02-28T23:46:17;9.20;99.90
21666;DHT22;10994;45.486;9.190;2023-02-28T23:48:44;9.30;99.90
21666;DHT22;10994;45.486;9.190;2023-02-28T23:51:12;9.30;99.90
21666;DHT22;10994;45.486;9.190;2023-02-28T23:53:41;9.30;99.90
21666;DHT22;10994;45.486;9.190;2023-02-28T23:56:09;9.30;99.90
21666;DHT22;10994;45.486;9.190;2023-02-28T23:58:35;9.40;99.90
